createdAt,value
2022-09-16T00:00:44.696Z,0.80
2022-09-16T00:05:41.105Z,0.38
2022-09-16T00:10:33.501Z,0.40
2022-09-16T00:12:59.759Z,1.25
2022-09-16T00:15:26.037Z,0.55
2022-09-16T00:17:52.327Z,1.30
2022-09-16T00:20:18.637Z,0.57
2022-09-16T00:22:44.870Z,1.02
2022-09-16T00:25:11.137Z,0.85
2022-09-16T00:27:37.419Z,0.82
2022-09-16T00:30:04.200Z,1.42
2022-09-16T00:32:30.447Z,0.60
2022-09-16T00:34:56.714Z,0.60
2022-09-16T00:37:23.327Z,0.60
2022-09-16T00:39:50.081Z,1.42
2022-09-16T00:42:16.849Z,0.85
2022-09-16T00:45:00.298Z,0.80
2022-09-16T00:47:38.381Z,0.70
2022-09-16T00:50:10.383Z,0.75
2022-09-16T00:52:36.926Z,0.60
2022-09-16T00:55:06.392Z,0.52
2022-09-16T00:57:32.795Z,0.40
2022-09-16T00:59:59.860Z,0.88
2022-09-16T01:02:27.159Z,0.50
2022-09-16T01:04:56.343Z,0.93
2022-09-16T01:07:34.592Z,1.05
2022-09-16T01:10:00.858Z,0.60
2022-09-16T01:12:28.061Z,0.88
2022-09-16T01:14:54.614Z,0.93
2022-09-16T01:17:25.637Z,0.57
2022-09-16T01:20:06.362Z,3.53
2022-09-16T01:22:44.857Z,1.25
2022-09-16T01:25:11.100Z,0.80
2022-09-16T01:27:45.822Z,0.55
2022-09-16T01:30:14.867Z,0.50
2022-09-16T01:32:58.522Z,0.75
2022-09-16T01:35:41.998Z,0.73
2022-09-16T01:38:26.271Z,0.85
2022-09-16T01:40:55.255Z,0.73
2022-09-16T01:43:21.496Z,0.50
2022-09-16T01:45:47.735Z,1.33
2022-09-16T01:48:14.016Z,0.60
2022-09-16T01:50:46.285Z,1.63
2022-09-16T01:53:12.567Z,0.70
2022-09-16T01:55:41.879Z,0.60
2022-09-16T01:58:18.410Z,0.82
2022-09-16T02:00:45.158Z,0.70
2022-09-16T02:03:17.499Z,0.75
2022-09-16T02:05:50.185Z,0.60
2022-09-16T02:08:25.719Z,0.93
2022-09-16T02:10:55.750Z,0.82
2022-09-16T02:13:33.829Z,0.52
2022-09-16T02:16:04.111Z,0.45
2022-09-16T02:18:34.403Z,1.27
2022-09-16T02:21:02.669Z,0.52
2022-09-16T02:23:36.737Z,0.65
2022-09-16T02:26:05.142Z,0.70
2022-09-16T02:28:33.966Z,0.40
2022-09-16T02:31:01.917Z,0.50
2022-09-16T02:33:36.190Z,0.70
2022-09-16T02:36:03.465Z,0.38
2022-09-16T02:38:40.502Z,1.45
2022-09-16T02:41:07.118Z,1.27
2022-09-16T02:43:33.404Z,0.60
2022-09-16T02:46:00.195Z,2.88
2022-09-16T02:48:26.459Z,0.50
2022-09-16T02:50:56.313Z,0.45
2022-09-16T02:53:28.851Z,0.63
2022-09-16T02:55:55.526Z,0.95
2022-09-16T02:58:21.822Z,0.82
2022-09-16T03:00:51.050Z,0.75
2022-09-16T03:03:17.532Z,0.83
2022-09-16T03:06:02.521Z,1.08
2022-09-16T03:08:28.881Z,0.63
2022-09-16T03:10:56.205Z,1.20
2022-09-16T03:13:32.554Z,1.42
2022-09-16T03:16:05.432Z,1.10
2022-09-16T03:18:58.348Z,0.80
2022-09-16T03:21:30.677Z,1.35
2022-09-16T03:24:05.976Z,1.00
2022-09-16T03:26:36.679Z,1.00
2022-09-16T03:29:21.886Z,0.90
2022-09-16T03:32:08.403Z,0.80
2022-09-16T03:34:46.562Z,0.75
2022-09-16T03:37:15.158Z,1.35
2022-09-16T03:39:41.653Z,0.95
2022-09-16T03:42:09.300Z,0.70
2022-09-16T03:44:36.599Z,0.90
2022-09-16T03:47:03.649Z,0.93
2022-09-16T03:49:30.460Z,0.90
2022-09-16T03:51:57.251Z,2.15
2022-09-16T03:54:23.571Z,3.03
2022-09-16T03:56:49.853Z,1.15
2022-09-16T03:59:17.014Z,1.58
2022-09-16T04:01:43.557Z,1.88
2022-09-16T04:04:09.917Z,1.23
2022-09-16T04:06:36.186Z,1.27
2022-09-16T04:09:03.281Z,1.77
2022-09-16T04:11:31.614Z,1.35
2022-09-16T04:13:58.841Z,1.70
2022-09-16T04:16:25.363Z,1.73
2022-09-16T04:18:52.034Z,1.60
2022-09-16T04:21:19.049Z,2.65
2022-09-16T04:23:45.327Z,1.88
2022-09-16T04:26:11.647Z,1.95
2022-09-16T04:28:38.053Z,3.03
2022-09-16T04:31:05.454Z,2.15
2022-09-16T04:33:32.634Z,3.08
2022-09-16T04:36:05.571Z,2.72
2022-09-16T04:38:31.855Z,2.95
2022-09-16T04:41:01.975Z,2.63
2022-09-16T04:45:54.539Z,3.15
2022-09-16T04:48:20.864Z,3.30
2022-09-16T04:50:47.139Z,2.85
2022-09-16T04:53:13.403Z,3.00
2022-09-16T04:55:39.673Z,3.20
2022-09-16T04:58:05.967Z,2.83
2022-09-16T05:00:32.405Z,3.50
2022-09-16T05:02:58.749Z,2.97
2022-09-16T05:05:25.039Z,3.38
2022-09-16T05:07:52.170Z,3.45
2022-09-16T05:10:18.448Z,3.58
2022-09-16T05:12:49.224Z,4.57
2022-09-16T05:15:15.714Z,3.17
2022-09-16T05:17:50.936Z,3.15
2022-09-16T05:20:18.041Z,3.90
2022-09-16T05:22:44.382Z,3.70
2022-09-16T05:25:10.642Z,3.40
2022-09-16T05:27:36.922Z,3.70
2022-09-16T05:30:03.265Z,3.97
2022-09-16T05:32:29.489Z,4.43
2022-09-16T05:34:56.233Z,4.90
2022-09-16T05:37:22.514Z,4.45
2022-09-16T05:39:49.257Z,4.30
2022-09-16T05:42:15.538Z,5.70
2022-09-16T05:44:41.797Z,4.88
2022-09-16T05:47:08.052Z,4.85
2022-09-16T05:49:34.307Z,4.55
2022-09-16T05:52:00.566Z,4.13
2022-09-16T05:54:26.824Z,4.07
2022-09-16T05:56:53.062Z,4.05
2022-09-16T05:59:19.447Z,3.67
2022-09-16T06:01:46.053Z,3.25
2022-09-16T06:04:13.495Z,3.25
2022-09-16T06:06:41.398Z,3.50
2022-09-16T06:09:09.323Z,3.00
2022-09-16T06:11:36.958Z,3.03
2022-09-16T06:14:03.236Z,2.80
2022-09-16T06:16:32.879Z,2.42
2022-09-16T06:19:02.901Z,2.85
2022-09-16T06:21:29.630Z,2.67
2022-09-16T06:23:56.555Z,2.70
2022-09-16T06:26:24.431Z,1.80
2022-09-16T06:28:51.240Z,1.50
2022-09-16T06:31:19.786Z,2.30
2022-09-16T06:33:46.167Z,2.28
2022-09-16T06:36:17.735Z,1.80
2022-09-16T06:38:44.495Z,1.40
2022-09-16T06:41:11.647Z,2.42
2022-09-16T06:43:38.583Z,1.35
2022-09-16T06:46:06.199Z,1.60
2022-09-16T06:48:33.587Z,2.17
2022-09-16T06:51:01.104Z,1.75
2022-09-16T06:53:27.796Z,1.42
2022-09-16T06:55:54.189Z,2.53
2022-09-16T06:58:20.519Z,2.67
2022-09-16T07:00:46.839Z,1.40
2022-09-16T07:03:13.092Z,1.30
2022-09-16T07:05:39.344Z,0.80
2022-09-16T07:08:05.601Z,0.65
2022-09-16T07:10:31.863Z,0.88
2022-09-16T07:12:58.537Z,1.27
2022-09-16T07:15:24.825Z,0.85
2022-09-16T07:17:55.117Z,1.35
2022-09-16T07:20:21.395Z,1.30
2022-09-16T07:22:50.668Z,1.85
2022-09-16T07:25:17.017Z,1.27
2022-09-16T07:27:43.276Z,1.23
2022-09-16T07:30:09.702Z,1.08
2022-09-16T07:32:36.204Z,1.85
2022-09-16T07:35:03.364Z,1.40
2022-09-16T07:37:29.610Z,2.13
2022-09-16T07:39:55.882Z,1.20
2022-09-16T07:42:22.282Z,1.60
2022-09-16T07:44:48.539Z,2.33
2022-09-16T07:47:17.767Z,1.83
2022-09-16T07:49:46.809Z,2.53
2022-09-16T07:52:13.643Z,1.75
2022-09-16T07:54:39.897Z,2.40
2022-09-16T07:57:06.183Z,1.70
2022-09-16T07:59:32.440Z,2.05
2022-09-16T08:01:58.982Z,2.53
2022-09-16T08:04:25.313Z,2.50
2022-09-16T08:06:51.560Z,2.42
2022-09-16T08:12:04.857Z,2.75
2022-09-16T08:14:31.186Z,2.17
2022-09-16T08:16:57.521Z,2.38
2022-09-16T08:19:23.841Z,1.63
2022-09-16T08:21:51.129Z,1.75
2022-09-16T08:24:17.458Z,1.30
2022-09-16T08:26:43.806Z,1.40
2022-09-16T08:29:10.627Z,1.60
2022-09-16T08:31:37.852Z,2.00
2022-09-16T08:34:04.685Z,2.30
2022-09-16T08:36:33.155Z,1.35
2022-09-16T08:38:59.494Z,1.15
2022-09-16T08:41:25.747Z,1.08
2022-09-16T08:43:52.197Z,1.10
2022-09-16T08:46:34.797Z,0.95
2022-09-16T08:49:07.803Z,0.70
2022-09-16T08:51:34.065Z,1.38
2022-09-16T08:54:24.437Z,1.00
2022-09-16T08:56:50.792Z,1.15
2022-09-16T08:59:19.977Z,0.82
2022-09-16T09:01:52.258Z,1.37
2022-09-16T09:04:18.866Z,0.65
2022-09-16T09:07:11.539Z,0.77
2022-09-16T09:09:48.088Z,0.47
2022-09-16T09:12:30.518Z,0.55
2022-09-16T09:15:08.006Z,0.60
2022-09-16T09:17:48.690Z,0.28
2022-09-16T09:20:15.410Z,0.55
2022-09-16T09:22:45.956Z,0.60
2022-09-16T09:25:15.090Z,1.10
2022-09-16T09:27:58.385Z,0.70
2022-09-16T09:30:25.783Z,0.20
2022-09-16T09:33:04.041Z,0.15
2022-09-16T09:35:39.140Z,0.10
2022-09-16T09:38:14.586Z,0.20
2022-09-16T09:40:47.640Z,0.20
2022-09-16T09:43:19.790Z,0.20
2022-09-16T09:45:53.603Z,0.43
2022-09-16T09:48:22.448Z,0.20
2022-09-16T09:50:49.591Z,0.50
2022-09-16T09:53:28.651Z,0.20
2022-09-16T09:55:59.243Z,0.40
2022-09-16T09:58:25.527Z,0.13
2022-09-16T10:00:55.899Z,0.20
2022-09-16T10:03:22.245Z,0.15
2022-09-16T10:05:48.681Z,0.47
2022-09-16T10:08:20.744Z,0.85
2022-09-16T10:10:49.296Z,0.22
2022-09-16T10:13:16.865Z,0.30
2022-09-16T10:15:43.652Z,0.55
2022-09-16T10:18:19.146Z,0.73
2022-09-16T10:20:54.508Z,0.08
2022-09-16T10:23:27.578Z,0.47
2022-09-16T10:26:15.108Z,0.40
2022-09-16T10:28:41.377Z,0.52
2022-09-16T10:31:08.613Z,0.47
2022-09-16T10:33:36.346Z,0.93
2022-09-16T10:36:05.368Z,1.05
2022-09-16T10:38:39.721Z,0.45
2022-09-16T10:41:14.783Z,0.20
2022-09-16T10:43:46.669Z,0.40
2022-09-16T10:46:15.051Z,0.60
2022-09-16T10:48:41.930Z,0.20
2022-09-16T10:51:19.310Z,1.38
2022-09-16T10:53:51.621Z,0.38
2022-09-16T10:56:20.289Z,0.60
2022-09-16T10:58:46.533Z,0.20
2022-09-16T11:01:13.706Z,0.10
2022-09-16T11:03:59.205Z,1.08
2022-09-16T11:06:36.089Z,0.63
2022-09-16T11:09:08.296Z,0.90
2022-09-16T11:11:37.560Z,0.40
2022-09-16T11:14:14.963Z,0.40
2022-09-16T11:17:00.189Z,0.10
2022-09-16T11:19:59.156Z,0.22
2022-09-16T11:22:26.989Z,0.30
2022-09-16T11:24:59.193Z,0.30
2022-09-16T11:27:31.505Z,0.20
2022-09-16T11:30:03.415Z,0.20
2022-09-16T11:32:35.204Z,0.10
2022-09-16T11:35:09.439Z,0.10
2022-09-16T11:37:41.789Z,0.35
2022-09-16T11:40:17.638Z,0.30
2022-09-16T11:42:49.844Z,0.38
2022-09-16T11:45:25.287Z,0.10
2022-09-16T11:48:02.878Z,0.30
2022-09-16T11:50:40.822Z,0.00
2022-09-16T11:53:18.920Z,0.13
2022-09-16T11:55:50.421Z,0.30
2022-09-16T11:58:28.656Z,0.10
2022-09-16T12:00:56.750Z,0.80
2022-09-16T12:03:32.130Z,0.10
2022-09-16T12:06:04.634Z,0.10
2022-09-16T12:08:44.471Z,0.38
2022-09-16T12:11:32.961Z,1.38
2022-09-16T12:14:06.421Z,0.17
2022-09-16T12:16:45.135Z,0.10
2022-09-16T12:19:14.674Z,0.03
2022-09-16T12:21:45.988Z,0.20
2022-09-16T12:24:16.929Z,0.20
2022-09-16T12:26:49.016Z,0.63
2022-09-16T12:29:18.310Z,0.10
2022-09-16T12:31:51.257Z,0.08
2022-09-16T12:34:17.901Z,0.20
2022-09-16T12:36:47.555Z,0.08
2022-09-16T12:39:13.805Z,0.00
2022-09-16T12:42:09.762Z,0.10
2022-09-16T12:44:46.183Z,0.63
2022-09-16T12:47:25.297Z,0.50
2022-09-16T12:50:10.055Z,0.10
2022-09-16T12:52:51.867Z,0.30
2022-09-16T12:55:37.189Z,0.45
2022-09-16T12:58:12.676Z,0.20
2022-09-16T13:00:42.603Z,0.05
2022-09-16T13:03:15.105Z,0.10
2022-09-16T13:05:44.371Z,0.10
2022-09-16T13:08:22.011Z,0.10
2022-09-16T13:11:05.941Z,0.30
2022-09-16T13:13:43.017Z,0.10
2022-09-16T13:16:09.466Z,0.30
2022-09-16T13:18:46.059Z,0.52
2022-09-16T13:21:16.646Z,0.90
2022-09-16T13:23:44.914Z,0.10
2022-09-16T13:26:11.266Z,0.13
2022-09-16T13:28:38.187Z,0.10
2022-09-16T13:31:19.845Z,0.52
2022-09-16T13:34:02.432Z,0.90
2022-09-16T13:36:30.647Z,0.25
2022-09-16T13:39:04.770Z,0.17
2022-09-16T13:41:31.201Z,0.00
2022-09-16T13:43:58.036Z,0.70
2022-09-16T13:46:27.407Z,0.10
2022-09-16T13:49:06.450Z,0.00
2022-09-16T13:51:36.123Z,0.05
2022-09-16T13:54:04.653Z,0.17
2022-09-16T13:56:31.003Z,0.40
2022-09-16T13:59:15.785Z,0.73
2022-09-16T14:01:59.891Z,0.20
2022-09-16T14:04:37.649Z,0.10
2022-09-16T14:07:13.151Z,0.75
2022-09-16T14:10:03.132Z,0.00
2022-09-16T14:12:48.148Z,0.65
2022-09-16T14:15:16.179Z,0.25
2022-09-16T14:17:48.974Z,0.30
2022-09-16T14:20:19.172Z,0.17
2022-09-16T14:22:45.644Z,0.82
2022-09-16T14:25:29.383Z,0.10
2022-09-16T14:28:14.988Z,0.10
2022-09-16T14:30:48.912Z,0.00
2022-09-16T14:33:16.015Z,0.10
2022-09-16T14:35:44.168Z,0.47
2022-09-16T14:38:34.219Z,0.10
2022-09-16T14:40:59.396Z,0.17
2022-09-16T14:43:25.684Z,0.10
2022-09-16T14:45:53.331Z,0.20
2022-09-16T14:48:21.999Z,0.35
2022-09-16T14:50:49.594Z,0.00
2022-09-16T14:53:34.739Z,0.43
2022-09-16T14:56:02.459Z,0.40
2022-09-16T14:58:30.003Z,0.38
2022-09-16T15:01:08.991Z,0.20
2022-09-16T15:03:48.778Z,1.17
2022-09-16T15:06:17.136Z,0.93
2022-09-16T15:08:47.288Z,0.10
2022-09-16T15:11:30.044Z,0.10
2022-09-16T15:14:05.922Z,0.17
2022-09-16T15:16:32.579Z,0.10
2022-09-16T15:19:16.760Z,0.00
2022-09-16T15:21:43.651Z,0.10
2022-09-16T15:24:16.920Z,1.48
2022-09-16T15:26:44.489Z,0.20
2022-09-16T15:29:22.580Z,0.00
2022-09-16T15:31:50.261Z,0.08
2022-09-16T15:34:18.580Z,0.10
2022-09-16T15:36:46.037Z,0.00
2022-09-16T15:39:24.605Z,0.10
2022-09-16T15:42:02.015Z,0.32
2022-09-16T15:44:28.474Z,0.60
2022-09-16T15:46:55.148Z,0.15
2022-09-16T15:49:21.781Z,0.00
2022-09-16T15:51:49.126Z,0.00
2022-09-16T15:54:34.150Z,0.00
2022-09-16T15:57:02.550Z,0.00
2022-09-16T15:59:28.796Z,0.32
2022-09-16T16:01:56.718Z,0.00
2022-09-16T16:04:25.631Z,0.52
2022-09-16T16:06:52.002Z,0.98
2022-09-16T16:09:27.460Z,0.20
2022-09-16T16:11:54.148Z,0.20
2022-09-16T16:14:20.449Z,0.30
2022-09-16T16:17:11.187Z,1.15
2022-09-16T16:19:33.223Z,0.40
2022-09-16T16:22:00.272Z,0.98
2022-09-16T16:24:27.237Z,1.58
2022-09-16T16:26:56.725Z,0.30
2022-09-16T16:29:23.222Z,0.10
2022-09-16T16:32:03.230Z,0.00
2022-09-16T16:36:56.369Z,0.93
2022-09-16T16:39:24.303Z,0.20
2022-09-16T16:41:51.695Z,0.20
2022-09-16T16:44:18.046Z,0.20
2022-09-16T16:46:44.429Z,0.15
2022-09-16T16:49:10.729Z,0.52
2022-09-16T16:51:37.186Z,0.43
2022-09-16T16:54:03.548Z,0.20
2022-09-16T16:56:29.810Z,0.15
2022-09-16T16:58:56.085Z,0.65
2022-09-16T17:01:22.485Z,1.38
2022-09-16T17:03:51.535Z,0.20
2022-09-16T17:06:18.103Z,1.45
2022-09-16T17:08:44.376Z,1.88
2022-09-16T17:11:17.896Z,0.20
2022-09-16T17:13:45.113Z,0.20
2022-09-16T17:16:12.619Z,0.10
2022-09-16T17:18:39.678Z,0.40
2022-09-16T17:21:07.414Z,0.38
2022-09-16T17:23:34.128Z,0.30
2022-09-16T17:26:01.005Z,0.47
2022-09-16T17:28:27.283Z,0.30
2022-09-16T17:30:53.683Z,0.68
2022-09-16T17:33:19.953Z,0.55
2022-09-16T17:35:47.290Z,0.45
2022-09-16T17:38:13.947Z,0.75
2022-09-16T17:40:40.770Z,0.45
2022-09-16T17:43:07.122Z,0.32
2022-09-16T17:45:33.396Z,0.50
2022-09-16T17:47:59.931Z,0.82
2022-09-16T17:50:26.387Z,0.30
2022-09-16T17:52:53.059Z,0.65
2022-09-16T17:55:19.337Z,0.50
2022-09-16T17:57:45.576Z,0.32
2022-09-16T18:00:12.137Z,1.05
2022-09-16T18:02:38.416Z,1.63
2022-09-16T18:05:05.055Z,0.38
2022-09-16T18:07:31.368Z,0.75
2022-09-16T18:09:57.626Z,0.25
2022-09-16T18:12:23.882Z,1.10
2022-09-16T18:14:50.346Z,0.57
2022-09-16T18:17:18.659Z,2.47
2022-09-16T18:19:44.907Z,0.22
2022-09-16T18:22:11.158Z,0.80
2022-09-16T18:24:37.403Z,0.40
2022-09-16T18:27:03.755Z,0.20
2022-09-16T18:29:30.070Z,0.30
2022-09-16T18:31:56.364Z,0.50
2022-09-16T18:34:23.751Z,0.45
2022-09-16T18:36:50.031Z,1.83
2022-09-16T18:39:16.713Z,0.20
2022-09-16T18:42:03.298Z,0.65
2022-09-16T18:44:29.662Z,0.30
2022-09-16T18:46:55.938Z,0.10
2022-09-16T18:49:23.940Z,0.43
2022-09-16T18:51:51.917Z,0.57
2022-09-16T18:54:20.257Z,0.65
2022-09-16T18:56:46.559Z,0.77
2022-09-16T18:59:22.084Z,0.43
2022-09-16T19:01:49.194Z,0.40
2022-09-16T19:04:16.995Z,0.35
2022-09-16T19:06:47.837Z,1.40
2022-09-16T19:09:15.761Z,2.05
2022-09-16T19:11:42.225Z,0.70
2022-09-16T19:14:09.457Z,0.70
2022-09-16T19:16:36.295Z,0.90
2022-09-16T19:19:03.725Z,1.00
2022-09-16T19:21:30.003Z,0.88
2022-09-16T19:23:58.641Z,0.52
2022-09-16T19:26:30.963Z,0.70
2022-09-16T19:28:58.019Z,2.42
2022-09-16T19:31:24.390Z,1.02
2022-09-16T19:33:50.703Z,0.70
2022-09-16T19:36:20.837Z,1.23
2022-09-16T19:41:13.781Z,1.13
2022-09-16T19:43:40.207Z,3.40
2022-09-16T19:46:07.919Z,0.68
2022-09-16T19:48:35.068Z,0.98
2022-09-16T19:51:01.429Z,0.70
2022-09-16T19:53:27.849Z,0.93
2022-09-16T19:55:58.020Z,1.63
2022-09-16T20:00:56.088Z,1.13
2022-09-16T20:03:22.898Z,0.88
2022-09-16T20:05:49.987Z,1.58
2022-09-16T20:08:16.250Z,0.80
2022-09-16T20:10:42.507Z,0.60
2022-09-16T20:13:08.767Z,1.45
2022-09-16T20:15:35.014Z,0.95
2022-09-16T20:18:01.284Z,1.00
2022-09-16T20:20:27.584Z,1.05
2022-09-16T20:22:53.883Z,1.42
2022-09-16T20:25:23.331Z,0.98
2022-09-16T20:27:49.998Z,0.68
2022-09-16T20:30:16.274Z,0.75
2022-09-16T20:32:42.556Z,0.30
2022-09-16T20:35:09.269Z,2.55
2022-09-16T20:37:38.385Z,1.10
2022-09-16T20:40:04.949Z,0.68
2022-09-16T20:42:31.476Z,2.00
2022-09-16T20:44:57.715Z,0.60
2022-09-16T20:47:27.366Z,1.33
2022-09-16T20:49:53.606Z,0.50
2022-09-16T20:52:19.973Z,0.52
2022-09-16T20:54:46.214Z,0.50
2022-09-16T20:57:13.588Z,0.65
2022-09-16T20:59:39.929Z,0.77
2022-09-16T21:02:06.300Z,0.93
2022-09-16T21:04:32.582Z,1.40
2022-09-16T21:06:58.843Z,1.02
2022-09-16T21:09:25.096Z,0.52
2022-09-16T21:11:52.145Z,0.88
2022-09-16T21:14:21.381Z,1.08
2022-09-16T21:16:49.374Z,0.80
2022-09-16T21:19:16.532Z,0.98
2022-09-16T21:21:44.376Z,1.88
2022-09-16T21:24:10.846Z,1.30
2022-09-16T21:26:38.342Z,0.88
2022-09-16T21:29:05.733Z,1.23
2022-09-16T21:31:38.060Z,1.02
2022-09-16T21:34:10.881Z,0.35
2022-09-16T21:36:39.202Z,0.82
2022-09-16T21:39:05.728Z,0.57
2022-09-16T21:41:32.641Z,0.40
2022-09-16T21:43:58.985Z,0.45
2022-09-16T21:46:26.903Z,0.30
2022-09-16T21:48:55.921Z,0.20
2022-09-16T21:51:22.182Z,0.30
2022-09-16T21:53:48.439Z,0.17
2022-09-16T21:56:15.935Z,0.60
2022-09-16T21:58:42.281Z,1.10
2022-09-16T22:01:11.431Z,0.75
2022-09-16T22:03:38.797Z,0.57
2022-09-16T22:06:06.063Z,0.63
2022-09-16T22:08:32.861Z,0.90
2022-09-16T22:10:59.780Z,0.28
2022-09-16T22:13:27.693Z,0.30
2022-09-16T22:15:54.118Z,0.90
2022-09-16T22:18:20.455Z,0.60
2022-09-16T22:20:47.414Z,0.57
2022-09-16T22:23:13.693Z,0.65
2022-09-16T22:25:40.110Z,0.98
2022-09-16T22:28:06.667Z,1.10
2022-09-16T22:30:34.297Z,0.68
2022-09-16T22:33:00.866Z,0.30
2022-09-16T22:35:27.305Z,0.68
2022-09-16T22:37:53.607Z,0.93
2022-09-16T22:40:20.328Z,0.50
2022-09-16T22:42:46.618Z,0.70
2022-09-16T22:45:12.894Z,0.60
2022-09-16T22:47:39.156Z,0.45
2022-09-16T22:50:05.745Z,0.50
2022-09-16T22:52:32.201Z,0.60
2022-09-16T22:54:58.489Z,0.77
2022-09-16T22:57:24.818Z,1.85
2022-09-16T22:59:51.140Z,0.70
2022-09-16T23:02:17.403Z,0.50
2022-09-16T23:04:43.643Z,0.50
2022-09-16T23:07:10.186Z,0.55
2022-09-16T23:09:37.131Z,0.75
2022-09-16T23:12:04.619Z,0.40
2022-09-16T23:14:31.241Z,0.43
2022-09-16T23:16:57.542Z,0.40
2022-09-16T23:19:23.781Z,1.00
2022-09-16T23:21:50.034Z,0.25
2022-09-16T23:24:18.273Z,0.75
2022-09-16T23:26:44.828Z,0.43
2022-09-16T23:29:12.217Z,0.50
2022-09-16T23:31:40.354Z,0.45
2022-09-16T23:34:17.262Z,0.30
2022-09-16T23:36:44.035Z,0.93
2022-09-16T23:39:11.422Z,0.30
2022-09-16T23:41:38.478Z,0.30
2022-09-16T23:44:05.490Z,0.10
2022-09-16T23:46:32.418Z,0.60
2022-09-16T23:48:58.923Z,0.10
2022-09-16T23:51:28.435Z,0.22
2022-09-16T23:53:55.749Z,0.43
2022-09-16T23:56:22.054Z,0.10
2022-09-16T23:58:48.886Z,0.30
